sensor_id;sensor_type;location;lat;lon;timestamp;temperature;humidity
55091;DHT22;40985;53.180;5.800;2023-01-10T00:00:23;5.20;99.90
55091;DHT22;40985;53.180;5.800;2023-01-10T00:02:50;5.20;99.90
55091;DHT22;40985;53.180;5.800;2023-01-10T00:05:16;5.20;99.90
55091;DHT22;40985;53.180;5.800;2023-01-10T00:07:42;5.20;99.90
55091;DHT22;40985;53.180;5.800;2023-01-10T00:10:08;5.20;99.90
55091;DHT22;40985;53.180;5.800;2023-01-10T00:12:34;5.20;99.90
55091;DHT22;40985;53.180;5.800;2023-01-10T00:15:19;5.10;99.90
55091;DHT22;40985;53.180;5.800;2023-01-10T00:17:44;5.20;99.90
55091;DHT22;40985;53.180;5.800;2023-01-10T00:20:11;5.10;99.90
55091;DHT22;40985;53.180;5.800;2023-01-10T00:22:37;5.10;99.90
55091;DHT22;40985;53.180;5.800;2023-01-10T00:25:03;5.10;99.90
55091;DHT22;40985;53.180;5.800;2023-01-10T00:27:29;5.10;99.90
55091;DHT22;40985;53.180;5.800;2023-01-10T00:29:55;5.20;99.90
55091;DHT22;40985;53.180;5.800;2023-01-10T00:32:22;5.30;99.90
55091;DHT22;40985;53.180;5.800;2023-01-10T00:34:48;5.40;99.90
55091;DHT22;40985;53.180;5.800;2023-01-10T00:37:14;5.30;99.90
55091;DHT22;40985;53.180;5.800;2023-01-10T00:39:39;5.40;99.90
55091;DHT22;40985;53.180;5.800;2023-01-10T00:42:05;5.50;99.90
55091;DHT22;40985;53.180;5.800;2023-01-10T00:44:50;5.50;99.90
55091;DHT22;40985;53.180;5.800;2023-01-10T00:47:16;5.50;99.90
55091;DHT22;40985;53.180;5.800;2023-01-10T00:49:43;5.60;99.90
55091;DHT22;40985;53.180;5.800;2023-01-10T00:52:09;5.60;99.90
55091;DHT22;40985;53.180;5.800;2023-01-10T00:54:34;5.60;99.90
55091;DHT22;40985;53.180;5.800;2023-01-10T00:57:00;5.60;99.90
55091;DHT22;40985;53.180;5.800;2023-01-10T00:59:26;5.60;99.90
55091;DHT22;40985;53.180;5.800;2023-01-10T01:01:53;5.70;99.90
55091;DHT22;40985;53.180;5.800;2023-01-10T01:04:19;5.70;99.90
55091;DHT22;40985;53.180;5.800;2023-01-10T01:06:45;5.70;99.90
55091;DHT22;40985;53.180;5.800;2023-01-10T01:09:13;5.80;99.90
55091;DHT22;40985;53.180;5.800;2023-01-10T01:11:39;5.90;99.90
55091;DHT22;40985;53.180;5.800;2023-01-10T01:14:05;5.80;99.90
55091;DHT22;40985;53.180;5.800;2023-01-10T01:16:31;5.80;99.90
55091;DHT22;40985;53.180;5.800;2023-01-10T01:18:57;5.70;99.90
55091;DHT22;40985;53.180;5.800;2023-01-10T01:21:22;5.60;99.90
55091;DHT22;40985;53.180;5.800;2023-01-10T01:23:53;5.60;99.90
55091;DHT22;40985;53.180;5.800;2023-01-10T01:26:22;5.50;99.90
55091;DHT22;40985;53.180;5.800;2023-01-10T01:28:47;5.50;99.90
55091;DHT22;40985;53.180;5.800;2023-01-10T01:31:13;5.50;99.90
55091;DHT22;40985;53.180;5.800;2023-01-10T01:33:39;5.40;99.90
55091;DHT22;40985;53.180;5.800;2023-01-10T01:36:09;5.40;99.90
55091;DHT22;40985;53.180;5.800;2023-01-10T01:38:36;5.30;99.90
55091;DHT22;40985;53.180;5.800;2023-01-10T01:41:02;5.30;99.90
55091;DHT22;40985;53.180;5.800;2023-01-10T01:43:29;5.30;99.90
55091;DHT22;40985;53.180;5.800;2023-01-10T01:46:00;5.30;99.90
55091;DHT22;40985;53.180;5.800;2023-01-10T01:48:36;5.30;99.90
55091;DHT22;40985;53.180;5.800;2023-01-10T01:51:15;5.30;99.90
55091;DHT22;40985;53.180;5.800;2023-01-10T02:01:39;5.50;99.90
55091;DHT22;40985;53.180;5.800;2023-01-10T02:04:11;5.50;99.90
55091;DHT22;40985;53.180;5.800;2023-01-10T02:06:37;5.80;99.90
55091;DHT22;40985;53.180;5.800;2023-01-10T02:09:49;5.80;99.90
55091;DHT22;40985;53.180;5.800;2023-01-10T02:12:16;5.80;99.90
55091;DHT22;40985;53.180;5.800;2023-01-10T02:14:47;5.70;99.90
55091;DHT22;40985;53.180;5.800;2023-01-10T02:17:13;5.70;99.90
55091;DHT22;40985;53.180;5.800;2023-01-10T02:42:43;5.60;99.90
55091;DHT22;40985;53.180;5.800;2023-01-10T02:45:27;5.60;99.90
55091;DHT22;40985;53.180;5.800;2023-01-10T02:47:55;5.50;99.90
55091;DHT22;40985;53.180;5.800;2023-01-10T02:53:15;5.60;99.90
55091;DHT22;40985;53.180;5.800;2023-01-10T03:06:37;5.60;99.90
55091;DHT22;40985;53.180;5.800;2023-01-10T03:09:15;5.60;99.90
55091;DHT22;40985;53.180;5.800;2023-01-10T03:11:45;5.70;99.90
55091;DHT22;40985;53.180;5.800;2023-01-10T03:14:23;5.70;99.90
55091;DHT22;40985;53.180;5.800;2023-01-10T03:16:57;5.70;99.90
55091;DHT22;40985;53.180;5.800;2023-01-10T03:19:28;5.70;99.90
55091;DHT22;40985;53.180;5.800;2023-01-10T03:21:56;5.70;99.90
55091;DHT22;40985;53.180;5.800;2023-01-10T03:24:34;5.80;99.90
55091;DHT22;40985;53.180;5.800;2023-01-10T03:27:28;5.70;99.90
55091;DHT22;40985;53.180;5.800;2023-01-10T03:30:04;5.80;99.90
55091;DHT22;40985;53.180;5.800;2023-01-10T03:32:31;5.70;99.90
55091;DHT22;40985;53.180;5.800;2023-01-10T03:34:58;5.70;99.90
55091;DHT22;40985;53.180;5.800;2023-01-10T03:37:38;5.60;99.90
55091;DHT22;40985;53.180;5.800;2023-01-10T03:43:01;5.60;99.90
55091;DHT22;40985;53.180;5.800;2023-01-10T03:46:03;5.60;99.90
55091;DHT22;40985;53.180;5.800;2023-01-10T03:48:32;5.60;99.90
55091;DHT22;40985;53.180;5.800;2023-01-10T03:51:02;5.60;99.90
55091;DHT22;40985;53.180;5.800;2023-01-10T03:53:30;5.70;99.90
55091;DHT22;40985;53.180;5.800;2023-01-10T03:55:56;5.80;99.90
55091;DHT22;40985;53.180;5.800;2023-01-10T03:58:22;5.70;99.90
55091;DHT22;40985;53.180;5.800;2023-01-10T04:00:48;5.90;99.90
55091;DHT22;40985;53.180;5.800;2023-01-10T04:03:14;5.80;99.90
55091;DHT22;40985;53.180;5.800;2023-01-10T04:05:40;6.00;99.90
55091;DHT22;40985;53.180;5.800;2023-01-10T04:08:06;5.90;99.90
55091;DHT22;40985;53.180;5.800;2023-01-10T04:10:32;5.90;99.90
55091;DHT22;40985;53.180;5.800;2023-01-10T04:13:01;5.80;99.90
55091;DHT22;40985;53.180;5.800;2023-01-10T04:15:27;5.80;99.90
55091;DHT22;40985;53.180;5.800;2023-01-10T04:17:53;5.70;99.90
55091;DHT22;40985;53.180;5.800;2023-01-10T04:20:19;5.70;99.90
55091;DHT22;40985;53.180;5.800;2023-01-10T04:22:45;5.70;99.90
55091;DHT22;40985;53.180;5.800;2023-01-10T04:25:11;5.70;99.90
55091;DHT22;40985;53.180;5.800;2023-01-10T04:27:36;5.80;99.90
55091;DHT22;40985;53.180;5.800;2023-01-10T04:30:03;5.80;99.90
55091;DHT22;40985;53.180;5.800;2023-01-10T04:32:29;5.80;99.90
55091;DHT22;40985;53.180;5.800;2023-01-10T04:34:55;5.80;99.90
55091;DHT22;40985;53.180;5.800;2023-01-10T04:37:20;5.80;99.90
55091;DHT22;40985;53.180;5.800;2023-01-10T04:39:46;5.80;99.90
55091;DHT22;40985;53.180;5.800;2023-01-10T04:42:11;5.80;99.90
55091;DHT22;40985;53.180;5.800;2023-01-10T04:44:38;5.80;99.90
55091;DHT22;40985;53.180;5.800;2023-01-10T04:47:03;5.70;99.90
55091;DHT22;40985;53.180;5.800;2023-01-10T04:49:29;5.80;99.90
55091;DHT22;40985;53.180;5.800;2023-01-10T04:51:55;5.70;99.90
55091;DHT22;40985;53.180;5.800;2023-01-10T04:54:22;5.80;99.90
55091;DHT22;40985;53.180;5.800;2023-01-10T04:56:47;5.70;99.90
55091;DHT22;40985;53.180;5.800;2023-01-10T04:59:14;5.70;99.90
55091;DHT22;40985;53.180;5.800;2023-01-10T05:01:39;5.70;99.90
55091;DHT22;40985;53.180;5.800;2023-01-10T05:04:05;5.70;99.90
55091;DHT22;40985;53.180;5.800;2023-01-10T05:06:32;5.70;99.90
55091;DHT22;40985;53.180;5.800;2023-01-10T05:08:57;5.70;99.90
55091;DHT22;40985;53.180;5.800;2023-01-10T05:11:23;5.70;99.90
55091;DHT22;40985;53.180;5.800;2023-01-10T05:13:49;5.80;99.90
55091;DHT22;40985;53.180;5.800;2023-01-10T05:16:15;5.80;99.90
55091;DHT22;40985;53.180;5.800;2023-01-10T05:18:41;5.80;99.90
55091;DHT22;40985;53.180;5.800;2023-01-10T05:21:10;5.90;99.90
55091;DHT22;40985;53.180;5.800;2023-01-10T05:23:36;5.80;99.90
55091;DHT22;40985;53.180;5.800;2023-01-10T05:26:07;5.80;99.90
55091;DHT22;40985;53.180;5.800;2023-01-10T05:28:33;5.80;99.90
55091;DHT22;40985;53.180;5.800;2023-01-10T05:30:59;5.80;99.90
55091;DHT22;40985;53.180;5.800;2023-01-10T05:33:25;5.80;99.90
55091;DHT22;40985;53.180;5.800;2023-01-10T05:35:50;5.90;99.90
55091;DHT22;40985;53.180;5.800;2023-01-10T05:38:16;5.90;99.90
55091;DHT22;40985;53.180;5.800;2023-01-10T05:40:41;5.80;99.90
55091;DHT22;40985;53.180;5.800;2023-01-10T05:43:07;5.70;99.90
55091;DHT22;40985;53.180;5.800;2023-01-10T05:45:33;5.60;99.90
55091;DHT22;40985;53.180;5.800;2023-01-10T05:47:58;5.50;99.90
55091;DHT22;40985;53.180;5.800;2023-01-10T05:50:24;5.40;99.90
55091;DHT22;40985;53.180;5.800;2023-01-10T05:52:50;5.40;99.90
55091;DHT22;40985;53.180;5.800;2023-01-10T05:55:15;5.20;99.90
55091;DHT22;40985;53.180;5.800;2023-01-10T05:57:41;5.20;99.90
55091;DHT22;40985;53.180;5.800;2023-01-10T06:00:08;5.10;99.90
55091;DHT22;40985;53.180;5.800;2023-01-10T06:02:34;5.10;99.90
55091;DHT22;40985;53.180;5.800;2023-01-10T06:05:00;5.10;99.90
55091;DHT22;40985;53.180;5.800;2023-01-10T06:07:25;4.90;99.90
55091;DHT22;40985;53.180;5.800;2023-01-10T06:09:51;4.90;99.90
55091;DHT22;40985;53.180;5.800;2023-01-10T06:12:17;5.00;99.90
55091;DHT22;40985;53.180;5.800;2023-01-10T06:14:44;5.00;99.90
55091;DHT22;40985;53.180;5.800;2023-01-10T06:17:10;4.90;99.90
55091;DHT22;40985;53.180;5.800;2023-01-10T06:19:36;4.90;99.90
55091;DHT22;40985;53.180;5.800;2023-01-10T06:22:02;4.90;99.90
55091;DHT22;40985;53.180;5.800;2023-01-10T06:24:27;4.90;99.90
55091;DHT22;40985;53.180;5.800;2023-01-10T06:26:53;4.90;99.90
55091;DHT22;40985;53.180;5.800;2023-01-10T06:29:18;5.10;99.90
55091;DHT22;40985;53.180;5.800;2023-01-10T06:31:44;5.10;99.90
55091;DHT22;40985;53.180;5.800;2023-01-10T06:34:10;5.10;99.90
55091;DHT22;40985;53.180;5.800;2023-01-10T06:36:35;5.00;99.90
55091;DHT22;40985;53.180;5.800;2023-01-10T06:39:01;5.00;99.90
55091;DHT22;40985;53.180;5.800;2023-01-10T06:41:27;5.00;99.90
55091;DHT22;40985;53.180;5.800;2023-01-10T06:43:53;4.90;99.90
55091;DHT22;40985;53.180;5.800;2023-01-10T06:46:18;4.90;99.90
55091;DHT22;40985;53.180;5.800;2023-01-10T06:48:45;5.00;99.90
55091;DHT22;40985;53.180;5.800;2023-01-10T06:51:12;5.00;99.90
55091;DHT22;40985;53.180;5.800;2023-01-10T06:53:40;5.00;99.90
55091;DHT22;40985;53.180;5.800;2023-01-10T06:56:06;5.10;99.90
55091;DHT22;40985;53.180;5.800;2023-01-10T06:58:34;5.10;99.90
55091;DHT22;40985;53.180;5.800;2023-01-10T07:01:00;5.20;99.90
55091;DHT22;40985;53.180;5.800;2023-01-10T07:03:26;5.30;99.90
55091;DHT22;40985;53.180;5.800;2023-01-10T07:05:51;5.40;99.90
55091;DHT22;40985;53.180;5.800;2023-01-10T07:08:17;5.40;99.90
55091;DHT22;40985;53.180;5.800;2023-01-10T07:10:43;5.40;99.90
55091;DHT22;40985;53.180;5.800;2023-01-10T07:13:09;5.50;99.90
55091;DHT22;40985;53.180;5.800;2023-01-10T07:15:35;5.60;99.90
55091;DHT22;40985;53.180;5.800;2023-01-10T07:18:01;5.60;99.90
55091;DHT22;40985;53.180;5.800;2023-01-10T07:20:27;5.70;99.90
55091;DHT22;40985;53.180;5.800;2023-01-10T07:22:57;5.70;99.90
55091;DHT22;40985;53.180;5.800;2023-01-10T07:25:23;5.70;99.90
55091;DHT22;40985;53.180;5.800;2023-01-10T07:27:49;5.70;99.90
55091;DHT22;40985;53.180;5.800;2023-01-10T07:30:15;5.70;99.90
55091;DHT22;40985;53.180;5.800;2023-01-10T07:32:41;5.70;99.90
55091;DHT22;40985;53.180;5.800;2023-01-10T07:35:07;5.80;99.90
55091;DHT22;40985;53.180;5.800;2023-01-10T07:37:33;5.80;99.90
55091;DHT22;40985;53.180;5.800;2023-01-10T07:39:58;5.70;99.90
55091;DHT22;40985;53.180;5.800;2023-01-10T07:42:24;5.80;99.90
55091;DHT22;40985;53.180;5.800;2023-01-10T07:44:50;5.70;99.90
55091;DHT22;40985;53.180;5.800;2023-01-10T07:47:16;5.60;99.90
55091;DHT22;40985;53.180;5.800;2023-01-10T07:49:42;5.60;99.90
55091;DHT22;40985;53.180;5.800;2023-01-10T07:52:08;5.40;99.90
55091;DHT22;40985;53.180;5.800;2023-01-10T07:54:36;5.40;99.90
55091;DHT22;40985;53.180;5.800;2023-01-10T07:57:02;5.40;99.90
55091;DHT22;40985;53.180;5.800;2023-01-10T07:59:28;5.20;99.90
55091;DHT22;40985;53.180;5.800;2023-01-10T08:01:53;5.20;99.90
55091;DHT22;40985;53.180;5.800;2023-01-10T08:04:19;5.10;99.90
55091;DHT22;40985;53.180;5.800;2023-01-10T08:06:45;5.10;99.90
55091;DHT22;40985;53.180;5.800;2023-01-10T08:09:11;5.00;99.90
55091;DHT22;40985;53.180;5.800;2023-01-10T08:11:36;4.90;99.90
55091;DHT22;40985;53.180;5.800;2023-01-10T08:14:02;4.90;99.90
55091;DHT22;40985;53.180;5.800;2023-01-10T08:16:28;4.80;99.90
55091;DHT22;40985;53.180;5.800;2023-01-10T08:18:53;4.80;99.90
55091;DHT22;40985;53.180;5.800;2023-01-10T08:21:19;4.80;99.90
55091;DHT22;40985;53.180;5.800;2023-01-10T08:23:45;4.70;99.90
55091;DHT22;40985;53.180;5.800;2023-01-10T08:26:10;4.70;99.90
55091;DHT22;40985;53.180;5.800;2023-01-10T08:28:36;4.60;99.90
55091;DHT22;40985;53.180;5.800;2023-01-10T08:31:06;4.60;99.90
55091;DHT22;40985;53.180;5.800;2023-01-10T08:33:32;4.60;99.90
55091;DHT22;40985;53.180;5.800;2023-01-10T08:35:57;4.60;99.90
55091;DHT22;40985;53.180;5.800;2023-01-10T08:38:23;4.70;99.90
55091;DHT22;40985;53.180;5.800;2023-01-10T08:40:49;4.60;99.90
55091;DHT22;40985;53.180;5.800;2023-01-10T08:43:15;4.70;99.90
55091;DHT22;40985;53.180;5.800;2023-01-10T08:45:41;4.70;99.90
55091;DHT22;40985;53.180;5.800;2023-01-10T08:48:06;4.80;99.90
55091;DHT22;40985;53.180;5.800;2023-01-10T08:50:34;5.00;99.90
55091;DHT22;40985;53.180;5.800;2023-01-10T08:53:00;5.10;99.90
55091;DHT22;40985;53.180;5.800;2023-01-10T08:55:27;5.10;99.90
55091;DHT22;40985;53.180;5.800;2023-01-10T08:57:53;5.20;99.90
55091;DHT22;40985;53.180;5.800;2023-01-10T09:00:19;5.10;99.90
55091;DHT22;40985;53.180;5.800;2023-01-10T09:02:45;5.10;99.90
55091;DHT22;40985;53.180;5.800;2023-01-10T09:05:10;5.30;99.90
55091;DHT22;40985;53.180;5.800;2023-01-10T09:07:36;5.20;99.90
55091;DHT22;40985;53.180;5.800;2023-01-10T09:10:03;5.20;99.90
55091;DHT22;40985;53.180;5.800;2023-01-10T09:12:29;5.30;99.90
55091;DHT22;40985;53.180;5.800;2023-01-10T09:15:13;5.40;99.90
55091;DHT22;40985;53.180;5.800;2023-01-10T09:17:39;5.40;99.90
55091;DHT22;40985;53.180;5.800;2023-01-10T09:20:05;5.40;99.90
55091;DHT22;40985;53.180;5.800;2023-01-10T09:22:38;5.40;99.90
55091;DHT22;40985;53.180;5.800;2023-01-10T09:25:04;5.50;99.90
55091;DHT22;40985;53.180;5.800;2023-01-10T09:27:31;5.50;99.90
55091;DHT22;40985;53.180;5.800;2023-01-10T09:29:57;5.50;99.90
55091;DHT22;40985;53.180;5.800;2023-01-10T09:32:23;5.60;99.90
55091;DHT22;40985;53.180;5.800;2023-01-10T09:34:48;5.70;99.90
55091;DHT22;40985;53.180;5.800;2023-01-10T09:37:14;5.80;99.90
55091;DHT22;40985;53.180;5.800;2023-01-10T09:39:40;5.80;99.90
55091;DHT22;40985;53.180;5.800;2023-01-10T09:44:52;5.80;99.90
55091;DHT22;40985;53.180;5.800;2023-01-10T09:50:05;5.90;99.90
55091;DHT22;40985;53.180;5.800;2023-01-10T09:52:42;6.00;99.90
55091;DHT22;40985;53.180;5.800;2023-01-10T09:55:26;6.00;99.90
55091;DHT22;40985;53.180;5.800;2023-01-10T09:57:54;6.00;99.90
55091;DHT22;40985;53.180;5.800;2023-01-10T10:00:25;6.10;99.90
55091;DHT22;40985;53.180;5.800;2023-01-10T10:02:52;6.10;99.90
55091;DHT22;40985;53.180;5.800;2023-01-10T10:05:21;6.10;99.90
55091;DHT22;40985;53.180;5.800;2023-01-10T10:07:54;6.20;99.90
55091;DHT22;40985;53.180;5.800;2023-01-10T10:10:45;6.20;99.90
55091;DHT22;40985;53.180;5.800;2023-01-10T10:16:13;6.20;99.90
55091;DHT22;40985;53.180;5.800;2023-01-10T10:18:54;6.20;99.90
55091;DHT22;40985;53.180;5.800;2023-01-10T10:21:31;6.20;99.90
55091;DHT22;40985;53.180;5.800;2023-01-10T10:27:21;6.30;99.90
55091;DHT22;40985;53.180;5.800;2023-01-10T10:35:12;6.40;99.90
55091;DHT22;40985;53.180;5.800;2023-01-10T10:37:49;6.40;99.90
55091;DHT22;40985;53.180;5.800;2023-01-10T10:40:32;6.40;99.90
55091;DHT22;40985;53.180;5.800;2023-01-10T10:43:19;6.50;99.90
55091;DHT22;40985;53.180;5.800;2023-01-10T10:46:02;6.40;99.90
55091;DHT22;40985;53.180;5.800;2023-01-10T10:48:33;6.50;99.90
55091;DHT22;40985;53.180;5.800;2023-01-10T10:51:13;6.50;99.90
55091;DHT22;40985;53.180;5.800;2023-01-10T10:53:40;6.50;99.90
55091;DHT22;40985;53.180;5.800;2023-01-10T10:56:11;6.50;99.90
55091;DHT22;40985;53.180;5.800;2023-01-10T10:58:41;6.50;99.90
55091;DHT22;40985;53.180;5.800;2023-01-10T11:01:12;6.50;99.90
55091;DHT22;40985;53.180;5.800;2023-01-10T11:03:43;6.50;99.90
55091;DHT22;40985;53.180;5.800;2023-01-10T11:06:10;6.50;99.90
55091;DHT22;40985;53.180;5.800;2023-01-10T11:08:39;6.50;99.90
55091;DHT22;40985;53.180;5.800;2023-01-10T11:11:21;6.50;99.90
55091;DHT22;40985;53.180;5.800;2023-01-10T11:13:53;6.50;99.90
55091;DHT22;40985;53.180;5.800;2023-01-10T11:16:28;6.50;99.90
55091;DHT22;40985;53.180;5.800;2023-01-10T11:21:46;6.50;99.90
55091;DHT22;40985;53.180;5.800;2023-01-10T11:26:57;6.50;99.90
55091;DHT22;40985;53.180;5.800;2023-01-10T11:29:27;6.40;99.90
55091;DHT22;40985;53.180;5.800;2023-01-10T11:31:58;6.40;99.90
55091;DHT22;40985;53.180;5.800;2023-01-10T11:34:34;6.40;99.90
55091;DHT22;40985;53.180;5.800;2023-01-10T11:37:17;6.30;99.90
55091;DHT22;40985;53.180;5.800;2023-01-10T11:39:44;6.30;99.90
55091;DHT22;40985;53.180;5.800;2023-01-10T11:42:27;6.30;99.90
55091;DHT22;40985;53.180;5.800;2023-01-10T11:44:55;6.20;99.90
55091;DHT22;40985;53.180;5.800;2023-01-10T11:47:39;6.20;99.90
55091;DHT22;40985;53.180;5.800;2023-01-10T11:50:11;6.20;99.90
55091;DHT22;40985;53.180;5.800;2023-01-10T11:52:43;6.20;99.90
55091;DHT22;40985;53.180;5.800;2023-01-10T11:55:09;6.20;99.90
55091;DHT22;40985;53.180;5.800;2023-01-10T11:57:35;6.20;99.90
55091;DHT22;40985;53.180;5.800;2023-01-10T12:00:06;6.10;99.90
55091;DHT22;40985;53.180;5.800;2023-01-10T12:02:39;6.10;99.90
55091;DHT22;40985;53.180;5.800;2023-01-10T12:05:25;6.10;99.90
55091;DHT22;40985;53.180;5.800;2023-01-10T12:08:03;6.20;99.90
55091;DHT22;40985;53.180;5.800;2023-01-10T12:10:32;6.10;99.90
55091;DHT22;40985;53.180;5.800;2023-01-10T12:13:06;6.10;99.90
55091;DHT22;40985;53.180;5.800;2023-01-10T12:15:37;6.20;99.90
55091;DHT22;40985;53.180;5.800;2023-01-10T12:18:03;6.10;99.90
55091;DHT22;40985;53.180;5.800;2023-01-10T12:20:34;6.10;99.90
55091;DHT22;40985;53.180;5.800;2023-01-10T12:23:07;6.10;99.90
55091;DHT22;40985;53.180;5.800;2023-01-10T12:25:43;6.10;99.90
55091;DHT22;40985;53.180;5.800;2023-01-10T12:28:24;6.10;99.90
55091;DHT22;40985;53.180;5.800;2023-01-10T12:30:52;6.10;99.90
55091;DHT22;40985;53.180;5.800;2023-01-10T12:33:48;6.10;99.90
55091;DHT22;40985;53.180;5.800;2023-01-10T12:36:28;6.10;99.90
55091;DHT22;40985;53.180;5.800;2023-01-10T12:39:09;6.10;99.90
55091;DHT22;40985;53.180;5.800;2023-01-10T12:44:46;6.10;99.90
55091;DHT22;40985;53.180;5.800;2023-01-10T12:47:42;6.10;99.90
55091;DHT22;40985;53.180;5.800;2023-01-10T12:52:45;6.10;99.90
55091;DHT22;40985;53.180;5.800;2023-01-10T12:55:22;6.00;99.90
55091;DHT22;40985;53.180;5.800;2023-01-10T12:57:52;6.00;99.90
55091;DHT22;40985;53.180;5.800;2023-01-10T13:00:26;6.00;99.90
55091;DHT22;40985;53.180;5.800;2023-01-10T13:02:55;6.00;99.90
55091;DHT22;40985;53.180;5.800;2023-01-10T13:05:24;5.90;99.90
55091;DHT22;40985;53.180;5.800;2023-01-10T13:07:54;6.00;99.90
55091;DHT22;40985;53.180;5.800;2023-01-10T13:10:22;6.00;99.90
55091;DHT22;40985;53.180;5.800;2023-01-10T13:12:54;5.90;99.90
55091;DHT22;40985;53.180;5.800;2023-01-10T13:15:36;5.90;99.90
55091;DHT22;40985;53.180;5.800;2023-01-10T13:18:22;5.90;99.90
55091;DHT22;40985;53.180;5.800;2023-01-10T13:20:48;5.90;99.90
55091;DHT22;40985;53.180;5.800;2023-01-10T13:23:32;5.80;99.90
55091;DHT22;40985;53.180;5.800;2023-01-10T13:26:06;5.80;99.90
55091;DHT22;40985;53.180;5.800;2023-01-10T13:28:56;5.80;99.90
55091;DHT22;40985;53.180;5.800;2023-01-10T13:31:31;5.80;99.90
55091;DHT22;40985;53.180;5.800;2023-01-10T13:36:36;5.80;99.90
55091;DHT22;40985;53.180;5.800;2023-01-10T13:39:04;5.80;99.90
55091;DHT22;40985;53.180;5.800;2023-01-10T14:00:53;5.70;99.90
55091;DHT22;40985;53.180;5.800;2023-01-10T14:03:52;5.70;99.90
55091;DHT22;40985;53.180;5.800;2023-01-10T14:09:40;5.60;99.90
55091;DHT22;40985;53.180;5.800;2023-01-10T14:14:22;5.60;99.90
55091;DHT22;40985;53.180;5.800;2023-01-10T14:16:55;5.60;99.90
55091;DHT22;40985;53.180;5.800;2023-01-10T14:19:30;5.60;99.90
55091;DHT22;40985;53.180;5.800;2023-01-10T14:21:59;5.60;99.90
55091;DHT22;40985;53.180;5.800;2023-01-10T14:24:29;5.60;99.90
55091;DHT22;40985;53.180;5.800;2023-01-10T14:26:59;5.60;99.90
55091;DHT22;40985;53.180;5.800;2023-01-10T14:29:29;5.60;99.90
55091;DHT22;40985;53.180;5.800;2023-01-10T14:31:57;5.60;99.90
55091;DHT22;40985;53.180;5.800;2023-01-10T14:34:28;5.60;99.90
55091;DHT22;40985;53.180;5.800;2023-01-10T14:39:23;5.60;99.90
55091;DHT22;40985;53.180;5.800;2023-01-10T14:41:52;5.60;99.90
55091;DHT22;40985;53.180;5.800;2023-01-10T14:44:26;5.60;99.90
55091;DHT22;40985;53.180;5.800;2023-01-10T14:46:55;5.60;99.90
55091;DHT22;40985;53.180;5.800;2023-01-10T14:49:27;5.60;99.90
55091;DHT22;40985;53.180;5.800;2023-01-10T14:52:16;5.60;99.90
55091;DHT22;40985;53.180;5.800;2023-01-10T14:54:40;5.60;99.90
55091;DHT22;40985;53.180;5.800;2023-01-10T14:57:24;5.60;99.90
55091;DHT22;40985;53.180;5.800;2023-01-10T14:59:52;5.60;99.90
55091;DHT22;40985;53.180;5.800;2023-01-10T15:02:25;5.60;99.90
55091;DHT22;40985;53.180;5.800;2023-01-10T15:07:19;5.60;99.90
55091;DHT22;40985;53.180;5.800;2023-01-10T15:09:58;5.60;99.90
55091;DHT22;40985;53.180;5.800;2023-01-10T15:12:28;5.60;99.90
55091;DHT22;40985;53.180;5.800;2023-01-10T15:15:14;5.60;99.90
55091;DHT22;40985;53.180;5.800;2023-01-10T15:17:42;5.60;99.90
55091;DHT22;40985;53.180;5.800;2023-01-10T15:20:14;5.60;99.90
55091;DHT22;40985;53.180;5.800;2023-01-10T15:22:44;5.60;99.90
55091;DHT22;40985;53.180;5.800;2023-01-10T15:27:45;5.50;99.90
55091;DHT22;40985;53.180;5.800;2023-01-10T15:30:21;5.50;99.90
55091;DHT22;40985;53.180;5.800;2023-01-10T15:32:53;5.50;99.90
55091;DHT22;40985;53.180;5.800;2023-01-10T15:35:22;5.50;99.90
55091;DHT22;40985;53.180;5.800;2023-01-10T15:37:52;5.50;99.90
55091;DHT22;40985;53.180;5.800;2023-01-10T15:40:33;5.50;99.90
55091;DHT22;40985;53.180;5.800;2023-01-10T15:43:22;5.50;99.90
55091;DHT22;40985;53.180;5.800;2023-01-10T15:45:49;5.50;99.90
55091;DHT22;40985;53.180;5.800;2023-01-10T15:51:19;5.50;99.90
55091;DHT22;40985;53.180;5.800;2023-01-10T15:53:52;5.50;99.90
55091;DHT22;40985;53.180;5.800;2023-01-10T15:56:26;5.40;99.90
55091;DHT22;40985;53.180;5.800;2023-01-10T15:58:53;5.40;99.90
55091;DHT22;40985;53.180;5.800;2023-01-10T16:01:19;5.40;99.90
55091;DHT22;40985;53.180;5.800;2023-01-10T16:03:50;5.40;99.90
55091;DHT22;40985;53.180;5.800;2023-01-10T16:06:20;5.40;99.90
55091;DHT22;40985;53.180;5.800;2023-01-10T16:08:49;5.40;99.90
55091;DHT22;40985;53.180;5.800;2023-01-10T16:11:21;5.40;99.90
55091;DHT22;40985;53.180;5.800;2023-01-10T16:14:06;5.40;99.90
55091;DHT22;40985;53.180;5.800;2023-01-10T16:16:32;5.40;99.90
55091;DHT22;40985;53.180;5.800;2023-01-10T16:18:57;5.40;99.90
55091;DHT22;40985;53.180;5.800;2023-01-10T16:21:26;5.30;99.90
55091;DHT22;40985;53.180;5.800;2023-01-10T16:23:53;5.40;99.90
55091;DHT22;40985;53.180;5.800;2023-01-10T16:26:19;5.40;99.90
55091;DHT22;40985;53.180;5.800;2023-01-10T16:28:45;5.40;99.90
55091;DHT22;40985;53.180;5.800;2023-01-10T16:31:11;5.40;99.90
55091;DHT22;40985;53.180;5.800;2023-01-10T16:33:38;5.40;99.90
55091;DHT22;40985;53.180;5.800;2023-01-10T16:36:13;5.40;99.90
55091;DHT22;40985;53.180;5.800;2023-01-10T16:38:39;5.40;99.90
55091;DHT22;40985;53.180;5.800;2023-01-10T16:41:09;5.40;99.90
55091;DHT22;40985;53.180;5.800;2023-01-10T16:43:53;5.50;99.90
55091;DHT22;40985;53.180;5.800;2023-01-10T16:46:20;5.40;99.90
55091;DHT22;40985;53.180;5.800;2023-01-10T16:48:46;5.50;99.90
55091;DHT22;40985;53.180;5.800;2023-01-10T16:51:19;5.40;99.90
55091;DHT22;40985;53.180;5.800;2023-01-10T16:53:46;5.50;99.90
55091;DHT22;40985;53.180;5.800;2023-01-10T16:56:17;5.50;99.90
55091;DHT22;40985;53.180;5.800;2023-01-10T16:58:43;5.50;99.90
55091;DHT22;40985;53.180;5.800;2023-01-10T17:01:18;5.40;99.90
55091;DHT22;40985;53.180;5.800;2023-01-10T17:03:44;5.50;99.90
55091;DHT22;40985;53.180;5.800;2023-01-10T17:06:12;5.50;99.90
55091;DHT22;40985;53.180;5.800;2023-01-10T17:08:37;5.40;99.90
55091;DHT22;40985;53.180;5.800;2023-01-10T17:11:05;5.40;99.90
55091;DHT22;40985;53.180;5.800;2023-01-10T17:13:33;5.50;99.90
55091;DHT22;40985;53.180;5.800;2023-01-10T17:16:01;5.50;99.90
55091;DHT22;40985;53.180;5.800;2023-01-10T17:18:27;5.50;99.90
55091;DHT22;40985;53.180;5.800;2023-01-10T17:20:54;5.40;99.90
55091;DHT22;40985;53.180;5.800;2023-01-10T17:23:21;5.50;99.90
55091;DHT22;40985;53.180;5.800;2023-01-10T17:25:47;5.50;99.90
55091;DHT22;40985;53.180;5.800;2023-01-10T17:28:14;5.50;99.90
55091;DHT22;40985;53.180;5.800;2023-01-10T17:30:41;5.50;99.90
55091;DHT22;40985;53.180;5.800;2023-01-10T17:33:08;5.50;99.90
55091;DHT22;40985;53.180;5.800;2023-01-10T17:35:42;5.50;99.90
55091;DHT22;40985;53.180;5.800;2023-01-10T17:38:11;5.60;99.90
55091;DHT22;40985;53.180;5.800;2023-01-10T17:40:41;5.50;99.90
55091;DHT22;40985;53.180;5.800;2023-01-10T17:43:07;5.50;99.90
55091;DHT22;40985;53.180;5.800;2023-01-10T17:45:32;5.60;99.90
55091;DHT22;40985;53.180;5.800;2023-01-10T17:47:58;5.50;99.90
55091;DHT22;40985;53.180;5.800;2023-01-10T17:50:24;5.50;99.90
55091;DHT22;40985;53.180;5.800;2023-01-10T17:52:50;5.60;99.90